sensor_id;sensor_type;location;lat;lon;timestamp;P1;durP1;ratioP1;P2;durP2;ratioP2
77955;SDS011;67152;36.266;32.294;2023-02-23T00:01:56;19.65;;;14.55;;
77955;SDS011;67152;36.266;32.294;2023-02-23T00:04:32;16.33;;;12.43;;
77955;SDS011;67152;36.266;32.294;2023-02-23T00:07:00;15.50;;;11.52;;
77955;SDS011;67152;36.266;32.294;2023-02-23T00:09:27;14.67;;;11.50;;
77955;SDS011;67152;36.266;32.294;2023-02-23T00:12:00;13.93;;;10.90;;
77955;SDS011;67152;36.266;32.294;2023-02-23T00:14:33;15.55;;;12.00;;
77955;SDS011;67152;36.266;32.294;2023-02-23T00:19:27;14.27;;;11.25;;
77955;SDS011;67152;36.266;32.294;2023-02-23T00:21:53;16.92;;;10.93;;
77955;SDS011;67152;36.266;32.294;2023-02-23T00:24:23;14.88;;;9.75;;
77955;SDS011;67152;36.266;32.294;2023-02-23T00:26:51;10.90;;;8.15;;
77955;SDS011;67152;36.266;32.294;2023-02-23T00:29:20;13.95;;;9.65;;
77955;SDS011;67152;36.266;32.294;2023-02-23T00:31:48;14.63;;;9.93;;
77955;SDS011;67152;36.266;32.294;2023-02-23T00:36:48;14.93;;;10.70;;
77955;SDS011;67152;36.266;32.294;2023-02-23T00:39:15;14.93;;;8.27;;
77955;SDS011;67152;36.266;32.294;2023-02-23T00:41:54;11.82;;;8.05;;
77955;SDS011;67152;36.266;32.294;2023-02-23T00:44:21;14.13;;;10.52;;
77955;SDS011;67152;36.266;32.294;2023-02-23T00:46:49;13.48;;;10.15;;
77955;SDS011;67152;36.266;32.294;2023-02-23T00:49:17;11.43;;;8.00;;
77955;SDS011;67152;36.266;32.294;2023-02-23T00:51:45;13.15;;;10.25;;
77955;SDS011;67152;36.266;32.294;2023-02-23T00:54:12;10.15;;;7.55;;
77955;SDS011;67152;36.266;32.294;2023-02-23T00:56:40;14.50;;;9.35;;
77955;SDS011;67152;36.266;32.294;2023-02-23T00:59:07;12.95;;;10.63;;
77955;SDS011;67152;36.266;32.294;2023-02-23T01:01:35;18.35;;;11.45;;
77955;SDS011;67152;36.266;32.294;2023-02-23T01:04:06;14.05;;;10.32;;
77955;SDS011;67152;36.266;32.294;2023-02-23T01:06:34;15.77;;;9.27;;
77955;SDS011;67152;36.266;32.294;2023-02-23T01:09:06;14.77;;;9.38;;
77955;SDS011;67152;36.266;32.294;2023-02-23T01:11:35;12.02;;;10.27;;
77955;SDS011;67152;36.266;32.294;2023-02-23T01:14:01;11.95;;;9.27;;
77955;SDS011;67152;36.266;32.294;2023-02-23T01:16:29;13.77;;;9.07;;
77955;SDS011;67152;36.266;32.294;2023-02-23T01:18:58;14.63;;;9.38;;
77955;SDS011;67152;36.266;32.294;2023-02-23T01:21:28;12.18;;;8.55;;
77955;SDS011;67152;36.266;32.294;2023-02-23T01:23:56;12.02;;;8.02;;
77955;SDS011;67152;36.266;32.294;2023-02-23T01:26:27;11.40;;;8.93;;
77955;SDS011;67152;36.266;32.294;2023-02-23T01:28:56;10.57;;;8.73;;
77955;SDS011;67152;36.266;32.294;2023-02-23T01:31:26;12.40;;;9.68;;
77955;SDS011;67152;36.266;32.294;2023-02-23T01:33:55;12.65;;;9.32;;
77955;SDS011;67152;36.266;32.294;2023-02-23T01:36:23;13.20;;;9.57;;
77955;SDS011;67152;36.266;32.294;2023-02-23T01:38:51;11.80;;;8.35;;
77955;SDS011;67152;36.266;32.294;2023-02-23T01:41:22;12.48;;;8.65;;
77955;SDS011;67152;36.266;32.294;2023-02-23T01:44:00;9.50;;;6.18;;
77955;SDS011;67152;36.266;32.294;2023-02-23T01:46:33;9.77;;;7.43;;
77955;SDS011;67152;36.266;32.294;2023-02-23T01:49:01;13.93;;;9.15;;
77955;SDS011;67152;36.266;32.294;2023-02-23T01:51:30;10.70;;;7.97;;
77955;SDS011;67152;36.266;32.294;2023-02-23T01:54:06;10.27;;;6.30;;
77955;SDS011;67152;36.266;32.294;2023-02-23T01:56:39;9.93;;;7.38;;
77955;SDS011;67152;36.266;32.294;2023-02-23T01:59:11;11.48;;;9.35;;
77955;SDS011;67152;36.266;32.294;2023-02-23T02:01:40;11.27;;;8.77;;
77955;SDS011;67152;36.266;32.294;2023-02-23T02:04:07;12.30;;;8.68;;
77955;SDS011;67152;36.266;32.294;2023-02-23T02:06:42;11.63;;;7.40;;
77955;SDS011;67152;36.266;32.294;2023-02-23T02:09:12;13.50;;;9.13;;
77955;SDS011;67152;36.266;32.294;2023-02-23T02:11:43;12.98;;;9.00;;
77955;SDS011;67152;36.266;32.294;2023-02-23T02:14:18;13.25;;;9.75;;
77955;SDS011;67152;36.266;32.294;2023-02-23T02:33:23;11.30;;;8.25;;
77955;SDS011;67152;36.266;32.294;2023-02-23T02:41:39;10.20;;;6.93;;
77955;SDS011;67152;36.266;32.294;2023-02-23T02:44:22;12.73;;;7.03;;
77955;SDS011;67152;36.266;32.294;2023-02-23T02:46:57;10.45;;;6.70;;
77955;SDS011;67152;36.266;32.294;2023-02-23T02:49:31;10.23;;;6.22;;
77955;SDS011;67152;36.266;32.294;2023-02-23T02:52:14;12.25;;;9.05;;
77955;SDS011;67152;36.266;32.294;2023-02-23T02:54:43;12.50;;;9.38;;
77955;SDS011;67152;36.266;32.294;2023-02-23T02:57:19;10.32;;;7.55;;
77955;SDS011;67152;36.266;32.294;2023-02-23T02:59:48;12.65;;;7.78;;
77955;SDS011;67152;36.266;32.294;2023-02-23T03:02:37;7.45;;;5.28;;
77955;SDS011;67152;36.266;32.294;2023-02-23T03:05:45;9.43;;;5.97;;
77955;SDS011;67152;36.266;32.294;2023-02-23T03:08:43;10.48;;;6.03;;
77955;SDS011;67152;36.266;32.294;2023-02-23T03:11:37;6.88;;;4.65;;
77955;SDS011;67152;36.266;32.294;2023-02-23T03:14:45;7.40;;;5.10;;
77955;SDS011;67152;36.266;32.294;2023-02-23T03:26:08;9.13;;;6.57;;
77955;SDS011;67152;36.266;32.294;2023-02-23T03:29:31;8.18;;;6.28;;
77955;SDS011;67152;36.266;32.294;2023-02-23T03:32:21;12.23;;;7.22;;
77955;SDS011;67152;36.266;32.294;2023-02-23T03:35:27;6.35;;;4.95;;
77955;SDS011;67152;36.266;32.294;2023-02-23T03:38:36;7.32;;;5.68;;
77955;SDS011;67152;36.266;32.294;2023-02-23T03:41:26;6.88;;;5.30;;
77955;SDS011;67152;36.266;32.294;2023-02-23T03:44:14;10.10;;;6.57;;
77955;SDS011;67152;36.266;32.294;2023-02-23T03:47:02;9.05;;;7.13;;
77955;SDS011;67152;36.266;32.294;2023-02-23T03:49:49;20.60;;;9.27;;
77955;SDS011;67152;36.266;32.294;2023-02-23T03:52:35;12.80;;;8.95;;
77955;SDS011;67152;36.266;32.294;2023-02-23T03:55:27;9.45;;;6.15;;
77955;SDS011;67152;36.266;32.294;2023-02-23T03:58:16;16.27;;;8.45;;
77955;SDS011;67152;36.266;32.294;2023-02-23T04:01:05;19.08;;;6.40;;
77955;SDS011;67152;36.266;32.294;2023-02-23T04:06:39;12.88;;;8.15;;
77955;SDS011;67152;36.266;32.294;2023-02-23T04:09:28;11.23;;;8.23;;
77955;SDS011;67152;36.266;32.294;2023-02-23T04:12:20;14.82;;;9.15;;
77955;SDS011;67152;36.266;32.294;2023-02-23T04:15:22;11.88;;;8.85;;
77955;SDS011;67152;36.266;32.294;2023-02-23T04:18:05;13.93;;;9.82;;
77955;SDS011;67152;36.266;32.294;2023-02-23T04:20:32;9.27;;;6.13;;
77955;SDS011;67152;36.266;32.294;2023-02-23T04:22:59;13.02;;;8.52;;
77955;SDS011;67152;36.266;32.294;2023-02-23T04:25:26;11.18;;;8.10;;
77955;SDS011;67152;36.266;32.294;2023-02-23T04:27:54;12.25;;;9.02;;
77955;SDS011;67152;36.266;32.294;2023-02-23T04:30:21;19.83;;;13.07;;
77955;SDS011;67152;36.266;32.294;2023-02-23T04:32:53;10.38;;;7.10;;
77955;SDS011;67152;36.266;32.294;2023-02-23T04:35:21;18.55;;;9.32;;
77955;SDS011;67152;36.266;32.294;2023-02-23T04:37:48;17.75;;;11.20;;
77955;SDS011;67152;36.266;32.294;2023-02-23T04:40:15;14.27;;;7.78;;
77955;SDS011;67152;36.266;32.294;2023-02-23T04:42:42;9.93;;;6.30;;
77955;SDS011;67152;36.266;32.294;2023-02-23T04:45:09;11.10;;;8.60;;
77955;SDS011;67152;36.266;32.294;2023-02-23T04:47:36;10.95;;;8.02;;
77955;SDS011;67152;36.266;32.294;2023-02-23T04:50:03;19.63;;;10.30;;
77955;SDS011;67152;36.266;32.294;2023-02-23T04:52:31;16.35;;;10.40;;
77955;SDS011;67152;36.266;32.294;2023-02-23T04:54:57;21.63;;;11.32;;
77955;SDS011;67152;36.266;32.294;2023-02-23T04:57:24;19.30;;;9.00;;
77955;SDS011;67152;36.266;32.294;2023-02-23T05:02:19;15.40;;;8.68;;
77955;SDS011;67152;36.266;32.294;2023-02-23T05:04:45;22.50;;;10.47;;
77955;SDS011;67152;36.266;32.294;2023-02-23T05:07:12;27.75;;;12.48;;
77955;SDS011;67152;36.266;32.294;2023-02-23T05:09:39;18.70;;;12.10;;
77955;SDS011;67152;36.266;32.294;2023-02-23T05:12:06;21.17;;;10.77;;
77955;SDS011;67152;36.266;32.294;2023-02-23T05:14:33;20.08;;;12.45;;
77955;SDS011;67152;36.266;32.294;2023-02-23T05:17:00;20.73;;;10.90;;
77955;SDS011;67152;36.266;32.294;2023-02-23T05:19:27;16.33;;;11.40;;
77955;SDS011;67152;36.266;32.294;2023-02-23T05:21:54;15.80;;;10.18;;
77955;SDS011;67152;36.266;32.294;2023-02-23T05:24:21;17.30;;;10.68;;
77955;SDS011;67152;36.266;32.294;2023-02-23T05:26:48;15.87;;;9.23;;
77955;SDS011;67152;36.266;32.294;2023-02-23T05:29:14;23.80;;;10.10;;
77955;SDS011;67152;36.266;32.294;2023-02-23T05:31:41;24.87;;;12.57;;
77955;SDS011;67152;36.266;32.294;2023-02-23T05:34:08;24.43;;;10.67;;
77955;SDS011;67152;36.266;32.294;2023-02-23T05:36:35;14.40;;;10.45;;
77955;SDS011;67152;36.266;32.294;2023-02-23T05:39:02;18.10;;;9.02;;
77955;SDS011;67152;36.266;32.294;2023-02-23T05:43:55;15.10;;;8.83;;
77955;SDS011;67152;36.266;32.294;2023-02-23T05:46:23;24.10;;;8.70;;
77955;SDS011;67152;36.266;32.294;2023-02-23T05:48:54;14.73;;;7.30;;
77955;SDS011;67152;36.266;32.294;2023-02-23T05:51:26;13.35;;;7.25;;
77955;SDS011;67152;36.266;32.294;2023-02-23T05:53:54;13.95;;;8.75;;
77955;SDS011;67152;36.266;32.294;2023-02-23T05:56:21;14.23;;;6.78;;
77955;SDS011;67152;36.266;32.294;2023-02-23T05:58:49;16.17;;;8.73;;
77955;SDS011;67152;36.266;32.294;2023-02-23T06:01:17;11.18;;;8.30;;
77955;SDS011;67152;36.266;32.294;2023-02-23T06:06:11;10.47;;;6.17;;
77955;SDS011;67152;36.266;32.294;2023-02-23T06:08:39;20.63;;;7.72;;
77955;SDS011;67152;36.266;32.294;2023-02-23T06:11:05;11.93;;;6.15;;
77955;SDS011;67152;36.266;32.294;2023-02-23T06:13:32;12.25;;;6.70;;
77955;SDS011;67152;36.266;32.294;2023-02-23T06:16:00;18.80;;;7.72;;
77955;SDS011;67152;36.266;32.294;2023-02-23T06:18:27;17.83;;;8.00;;
77955;SDS011;67152;36.266;32.294;2023-02-23T06:20:57;11.27;;;7.57;;
77955;SDS011;67152;36.266;32.294;2023-02-23T06:23:26;15.27;;;7.57;;
77955;SDS011;67152;36.266;32.294;2023-02-23T06:25:53;22.13;;;7.07;;
77955;SDS011;67152;36.266;32.294;2023-02-23T06:28:20;15.50;;;7.57;;
77955;SDS011;67152;36.266;32.294;2023-02-23T06:30:47;14.85;;;7.57;;
77955;SDS011;67152;36.266;32.294;2023-02-23T06:33:17;10.35;;;6.45;;
77955;SDS011;67152;36.266;32.294;2023-02-23T06:35:44;24.15;;;8.27;;
77955;SDS011;67152;36.266;32.294;2023-02-23T06:38:11;13.73;;;7.15;;
77955;SDS011;67152;36.266;32.294;2023-02-23T06:40:38;21.65;;;9.45;;
77955;SDS011;67152;36.266;32.294;2023-02-23T06:43:05;25.98;;;8.40;;
77955;SDS011;67152;36.266;32.294;2023-02-23T06:45:32;19.13;;;10.15;;
77955;SDS011;67152;36.266;32.294;2023-02-23T06:47:59;19.05;;;9.00;;
77955;SDS011;67152;36.266;32.294;2023-02-23T06:50:26;14.57;;;7.75;;
77955;SDS011;67152;36.266;32.294;2023-02-23T06:52:53;17.67;;;8.07;;
77955;SDS011;67152;36.266;32.294;2023-02-23T06:55:21;12.15;;;7.43;;
77955;SDS011;67152;36.266;32.294;2023-02-23T06:57:48;17.65;;;7.43;;
77955;SDS011;67152;36.266;32.294;2023-02-23T07:00:17;12.57;;;7.72;;
77955;SDS011;67152;36.266;32.294;2023-02-23T07:05:36;16.13;;;7.32;;
77955;SDS011;67152;36.266;32.294;2023-02-23T07:08:03;26.10;;;6.53;;
77955;SDS011;67152;36.266;32.294;2023-02-23T07:12:56;14.68;;;9.07;;
77955;SDS011;67152;36.266;32.294;2023-02-23T07:15:24;12.18;;;7.72;;
77955;SDS011;67152;36.266;32.294;2023-02-23T07:17:51;13.00;;;7.10;;
77955;SDS011;67152;36.266;32.294;2023-02-23T07:22:45;12.35;;;7.60;;
77955;SDS011;67152;36.266;32.294;2023-02-23T07:25:12;16.40;;;14.05;;
77955;SDS011;67152;36.266;32.294;2023-02-23T07:27:39;13.45;;;9.63;;
77955;SDS011;67152;36.266;32.294;2023-02-23T07:30:07;14.63;;;9.18;;
77955;SDS011;67152;36.266;32.294;2023-02-23T07:32:34;16.58;;;8.88;;
77955;SDS011;67152;36.266;32.294;2023-02-23T07:35:02;15.27;;;7.68;;
77955;SDS011;67152;36.266;32.294;2023-02-23T07:37:31;14.00;;;8.48;;
77955;SDS011;67152;36.266;32.294;2023-02-23T07:39:58;13.60;;;8.85;;
77955;SDS011;67152;36.266;32.294;2023-02-23T07:42:24;14.93;;;8.65;;
77955;SDS011;67152;36.266;32.294;2023-02-23T07:44:51;15.15;;;8.50;;
77955;SDS011;67152;36.266;32.294;2023-02-23T07:47:18;17.00;;;8.60;;
77955;SDS011;67152;36.266;32.294;2023-02-23T07:49:45;32.42;;;7.32;;
77955;SDS011;67152;36.266;32.294;2023-02-23T07:52:12;13.98;;;7.28;;
77955;SDS011;67152;36.266;32.294;2023-02-23T07:54:43;8.55;;;6.30;;
77955;SDS011;67152;36.266;32.294;2023-02-23T07:57:10;8.52;;;6.25;;
77955;SDS011;67152;36.266;32.294;2023-02-23T07:59:38;9.68;;;6.78;;
77955;SDS011;67152;36.266;32.294;2023-02-23T08:02:05;20.85;;;5.97;;
77955;SDS011;67152;36.266;32.294;2023-02-23T08:04:31;8.85;;;5.60;;
77955;SDS011;67152;36.266;32.294;2023-02-23T08:06:58;41.13;;;8.07;;
77955;SDS011;67152;36.266;32.294;2023-02-23T08:09:25;17.65;;;6.15;;
77955;SDS011;67152;36.266;32.294;2023-02-23T08:11:55;29.40;;;7.88;;
77955;SDS011;67152;36.266;32.294;2023-02-23T08:14:22;8.18;;;5.55;;
77955;SDS011;67152;36.266;32.294;2023-02-23T08:16:48;6.00;;;4.95;;
77955;SDS011;67152;36.266;32.294;2023-02-23T08:19:15;10.35;;;5.00;;
77955;SDS011;67152;36.266;32.294;2023-02-23T08:21:42;7.80;;;5.00;;
77955;SDS011;67152;36.266;32.294;2023-02-23T08:24:09;7.88;;;5.28;;
77955;SDS011;67152;36.266;32.294;2023-02-23T08:26:36;13.77;;;5.88;;
77955;SDS011;67152;36.266;32.294;2023-02-23T08:31:30;11.15;;;5.97;;
77955;SDS011;67152;36.266;32.294;2023-02-23T08:33:57;8.10;;;4.78;;
77955;SDS011;67152;36.266;32.294;2023-02-23T08:36:24;7.28;;;4.72;;
77955;SDS011;67152;36.266;32.294;2023-02-23T08:38:51;16.17;;;5.00;;
77955;SDS011;67152;36.266;32.294;2023-02-23T08:41:19;13.15;;;5.22;;
77955;SDS011;67152;36.266;32.294;2023-02-23T08:43:46;14.77;;;5.35;;
77955;SDS011;67152;36.266;32.294;2023-02-23T08:46:15;9.93;;;5.25;;
77955;SDS011;67152;36.266;32.294;2023-02-23T08:48:45;37.80;;;6.35;;
77955;SDS011;67152;36.266;32.294;2023-02-23T08:51:12;11.68;;;5.38;;
77955;SDS011;67152;36.266;32.294;2023-02-23T08:53:40;8.38;;;5.40;;
77955;SDS011;67152;36.266;32.294;2023-02-23T08:58:34;13.65;;;5.22;;
77955;SDS011;67152;36.266;32.294;2023-02-23T09:01:02;10.48;;;5.63;;
77955;SDS011;67152;36.266;32.294;2023-02-23T09:03:29;10.25;;;6.13;;
77955;SDS011;67152;36.266;32.294;2023-02-23T09:06:18;11.82;;;6.47;;
77955;SDS011;67152;36.266;32.294;2023-02-23T09:08:47;14.10;;;6.32;;
77955;SDS011;67152;36.266;32.294;2023-02-23T09:11:16;7.85;;;6.15;;
77955;SDS011;67152;36.266;32.294;2023-02-23T09:13:45;10.75;;;5.78;;
77955;SDS011;67152;36.266;32.294;2023-02-23T09:16:12;14.00;;;5.82;;
77955;SDS011;67152;36.266;32.294;2023-02-23T09:18:39;9.50;;;5.85;;
77955;SDS011;67152;36.266;32.294;2023-02-23T09:21:07;11.63;;;5.78;;
77955;SDS011;67152;36.266;32.294;2023-02-23T09:23:39;16.70;;;5.50;;
77955;SDS011;67152;36.266;32.294;2023-02-23T09:26:06;6.38;;;5.35;;
77955;SDS011;67152;36.266;32.294;2023-02-23T09:28:34;11.57;;;5.55;;
77955;SDS011;67152;36.266;32.294;2023-02-23T09:31:04;8.23;;;5.60;;
77955;SDS011;67152;36.266;32.294;2023-02-23T09:33:36;8.13;;;6.22;;
77955;SDS011;67152;36.266;32.294;2023-02-23T09:36:08;9.15;;;5.90;;
77955;SDS011;67152;36.266;32.294;2023-02-23T09:38:44;17.88;;;6.72;;
77955;SDS011;67152;36.266;32.294;2023-02-23T09:49:14;10.55;;;6.45;;
77955;SDS011;67152;36.266;32.294;2023-02-23T09:51:46;12.63;;;6.20;;
77955;SDS011;67152;36.266;32.294;2023-02-23T09:54:17;10.50;;;6.13;;
77955;SDS011;67152;36.266;32.294;2023-02-23T09:56:48;6.93;;;5.82;;
77955;SDS011;67152;36.266;32.294;2023-02-23T10:21:04;9.40;;;5.88;;
77955;SDS011;67152;36.266;32.294;2023-02-23T10:23:38;8.20;;;5.65;;
77955;SDS011;67152;36.266;32.294;2023-02-23T10:26:38;12.02;;;5.72;;
77955;SDS011;67152;36.266;32.294;2023-02-23T10:29:25;8.50;;;5.80;;
77955;SDS011;67152;36.266;32.294;2023-02-23T10:32:04;11.43;;;5.10;;
77955;SDS011;67152;36.266;32.294;2023-02-23T10:34:41;8.70;;;5.57;;
77955;SDS011;67152;36.266;32.294;2023-02-23T10:37:09;9.95;;;5.40;;
77955;SDS011;67152;36.266;32.294;2023-02-23T10:39:37;9.02;;;5.53;;
77955;SDS011;67152;36.266;32.294;2023-02-23T10:42:12;9.55;;;4.93;;
77955;SDS011;67152;36.266;32.294;2023-02-23T10:44:42;8.15;;;5.38;;
77955;SDS011;67152;36.266;32.294;2023-02-23T10:47:14;12.05;;;6.15;;
77955;SDS011;67152;36.266;32.294;2023-02-23T10:49:47;10.60;;;5.75;;
77955;SDS011;67152;36.266;32.294;2023-02-23T10:55:29;10.02;;;5.75;;
77955;SDS011;67152;36.266;32.294;2023-02-23T10:58:16;8.13;;;5.60;;
77955;SDS011;67152;36.266;32.294;2023-02-23T11:00:54;133.27;;;12.18;;
77955;SDS011;67152;36.266;32.294;2023-02-23T11:08:54;10.80;;;5.80;;
77955;SDS011;67152;36.266;32.294;2023-02-23T11:11:23;10.48;;;5.10;;
77955;SDS011;67152;36.266;32.294;2023-02-23T11:13:56;15.07;;;5.75;;
77955;SDS011;67152;36.266;32.294;2023-02-23T11:16:29;12.63;;;5.50;;
77955;SDS011;67152;36.266;32.294;2023-02-23T11:19:04;8.30;;;5.25;;
77955;SDS011;67152;36.266;32.294;2023-02-23T11:21:33;6.53;;;5.10;;
77955;SDS011;67152;36.266;32.294;2023-02-23T11:26:53;7.63;;;5.30;;
77955;SDS011;67152;36.266;32.294;2023-02-23T11:29:36;29.95;;;7.60;;
77955;SDS011;67152;36.266;32.294;2023-02-23T11:32:07;5.75;;;4.93;;
77955;SDS011;67152;36.266;32.294;2023-02-23T11:34:40;14.55;;;5.65;;
77955;SDS011;67152;36.266;32.294;2023-02-23T11:37:18;11.60;;;5.57;;
77955;SDS011;67152;36.266;32.294;2023-02-23T11:39:56;16.90;;;6.43;;
77955;SDS011;67152;36.266;32.294;2023-02-23T11:42:24;11.40;;;6.18;;
77955;SDS011;67152;36.266;32.294;2023-02-23T11:45:26;13.40;;;5.95;;
77955;SDS011;67152;36.266;32.294;2023-02-23T11:47:47;7.80;;;5.80;;
77955;SDS011;67152;36.266;32.294;2023-02-23T11:50:24;15.57;;;6.65;;
77955;SDS011;67152;36.266;32.294;2023-02-23T11:53:16;15.48;;;5.95;;
77955;SDS011;67152;36.266;32.294;2023-02-23T11:55:54;9.43;;;5.70;;
77955;SDS011;67152;36.266;32.294;2023-02-23T12:01:10;10.68;;;6.47;;
77955;SDS011;67152;36.266;32.294;2023-02-23T12:03:45;12.50;;;6.25;;
77955;SDS011;67152;36.266;32.294;2023-02-23T12:11:56;18.63;;;5.93;;
77955;SDS011;67152;36.266;32.294;2023-02-23T12:14:30;10.95;;;5.55;;
77955;SDS011;67152;36.266;32.294;2023-02-23T12:17:01;9.38;;;6.28;;
77955;SDS011;67152;36.266;32.294;2023-02-23T12:22:34;16.90;;;6.10;;
77955;SDS011;67152;36.266;32.294;2023-02-23T12:28:17;21.23;;;6.55;;
77955;SDS011;67152;36.266;32.294;2023-02-23T12:34:03;9.32;;;5.85;;
77955;SDS011;67152;36.266;32.294;2023-02-23T12:39:37;12.70;;;6.25;;
77955;SDS011;67152;36.266;32.294;2023-02-23T12:42:10;35.05;;;6.55;;
77955;SDS011;67152;36.266;32.294;2023-02-23T12:44:59;13.73;;;6.00;;
77955;SDS011;67152;36.266;32.294;2023-02-23T12:47:42;9.27;;;5.30;;
77955;SDS011;67152;36.266;32.294;2023-02-23T12:53:14;11.25;;;5.75;;
77955;SDS011;67152;36.266;32.294;2023-02-23T12:58:49;6.95;;;5.38;;
77955;SDS011;67152;36.266;32.294;2023-02-23T13:01:26;6.78;;;4.78;;
77955;SDS011;67152;36.266;32.294;2023-02-23T13:15:38;13.38;;;6.03;;
77955;SDS011;67152;36.266;32.294;2023-02-23T13:21:00;10.95;;;6.15;;
77955;SDS011;67152;36.266;32.294;2023-02-23T13:23:34;10.63;;;6.13;;
77955;SDS011;67152;36.266;32.294;2023-02-23T13:26:34;8.40;;;5.35;;
77955;SDS011;67152;36.266;32.294;2023-02-23T13:32:08;13.73;;;6.50;;
77955;SDS011;67152;36.266;32.294;2023-02-23T13:34:39;11.48;;;6.35;;
77955;SDS011;67152;36.266;32.294;2023-02-23T13:37:11;8.80;;;5.90;;
77955;SDS011;67152;36.266;32.294;2023-02-23T13:39:42;16.95;;;6.47;;
77955;SDS011;67152;36.266;32.294;2023-02-23T13:50:56;12.57;;;6.65;;
77955;SDS011;67152;36.266;32.294;2023-02-23T13:56:26;7.80;;;5.57;;
77955;SDS011;67152;36.266;32.294;2023-02-23T13:59:00;12.55;;;6.03;;
77955;SDS011;67152;36.266;32.294;2023-02-23T14:01:31;7.53;;;5.93;;
77955;SDS011;67152;36.266;32.294;2023-02-23T14:04:03;10.23;;;6.82;;
77955;SDS011;67152;36.266;32.294;2023-02-23T14:06:39;10.10;;;6.53;;
77955;SDS011;67152;36.266;32.294;2023-02-23T14:09:20;9.85;;;6.18;;
77955;SDS011;67152;36.266;32.294;2023-02-23T14:11:50;14.20;;;6.97;;
77955;SDS011;67152;36.266;32.294;2023-02-23T14:14:37;13.95;;;6.13;;
77955;SDS011;67152;36.266;32.294;2023-02-23T14:25:43;8.95;;;5.30;;
77955;SDS011;67152;36.266;32.294;2023-02-23T14:38:50;10.50;;;7.75;;
77955;SDS011;67152;36.266;32.294;2023-02-23T14:41:37;9.32;;;7.00;;
77955;SDS011;67152;36.266;32.294;2023-02-23T14:47:07;11.63;;;7.47;;
77955;SDS011;67152;36.266;32.294;2023-02-23T14:49:49;15.63;;;7.00;;
77955;SDS011;67152;36.266;32.294;2023-02-23T14:55:05;41.08;;;21.08;;
77955;SDS011;67152;36.266;32.294;2023-02-23T14:57:39;15.82;;;11.90;;
77955;SDS011;67152;36.266;32.294;2023-02-23T15:03:08;8.63;;;6.50;;
77955;SDS011;67152;36.266;32.294;2023-02-23T15:08:41;21.02;;;7.38;;
77955;SDS011;67152;36.266;32.294;2023-02-23T15:11:10;9.00;;;6.28;;
77955;SDS011;67152;36.266;32.294;2023-02-23T15:13:41;8.88;;;6.32;;
77955;SDS011;67152;36.266;32.294;2023-02-23T15:16:34;9.93;;;6.05;;
77955;SDS011;67152;36.266;32.294;2023-02-23T15:19:02;11.05;;;5.85;;
77955;SDS011;67152;36.266;32.294;2023-02-23T15:21:53;17.88;;;6.80;;
77955;SDS011;67152;36.266;32.294;2023-02-23T15:24:25;17.70;;;8.15;;
77955;SDS011;67152;36.266;32.294;2023-02-23T15:26:55;10.95;;;7.15;;
77955;SDS011;67152;36.266;32.294;2023-02-23T15:29:24;17.08;;;7.18;;
77955;SDS011;67152;36.266;32.294;2023-02-23T15:31:55;13.30;;;7.20;;
77955;SDS011;67152;36.266;32.294;2023-02-23T15:36:59;19.33;;;8.20;;
77955;SDS011;67152;36.266;32.294;2023-02-23T15:42:05;43.08;;;17.40;;
77955;SDS011;67152;36.266;32.294;2023-02-23T15:44:33;35.58;;;13.23;;
77955;SDS011;67152;36.266;32.294;2023-02-23T15:47:04;27.67;;;13.43;;
77955;SDS011;67152;36.266;32.294;2023-02-23T15:49:33;28.55;;;11.45;;
77955;SDS011;67152;36.266;32.294;2023-02-23T15:52:04;32.22;;;13.35;;
77955;SDS011;67152;36.266;32.294;2023-02-23T15:54:56;20.20;;;11.90;;
77955;SDS011;67152;36.266;32.294;2023-02-23T15:57:30;34.42;;;12.75;;
77955;SDS011;67152;36.266;32.294;2023-02-23T16:00:00;51.63;;;13.23;;
77955;SDS011;67152;36.266;32.294;2023-02-23T16:02:35;31.67;;;12.35;;
77955;SDS011;67152;36.266;32.294;2023-02-23T16:07:47;17.20;;;10.60;;
77955;SDS011;67152;36.266;32.294;2023-02-23T16:10:43;20.48;;;10.95;;
77955;SDS011;67152;36.266;32.294;2023-02-23T16:13:12;18.35;;;12.02;;
77955;SDS011;67152;36.266;32.294;2023-02-23T16:15:41;22.35;;;14.02;;
77955;SDS011;67152;36.266;32.294;2023-02-23T16:18:10;40.55;;;17.20;;
77955;SDS011;67152;36.266;32.294;2023-02-23T16:23:28;26.73;;;15.23;;
77955;SDS011;67152;36.266;32.294;2023-02-23T16:26:08;37.80;;;16.88;;
77955;SDS011;67152;36.266;32.294;2023-02-23T16:28:41;42.45;;;20.30;;
77955;SDS011;67152;36.266;32.294;2023-02-23T16:31:10;80.78;;;20.02;;
77955;SDS011;67152;36.266;32.294;2023-02-23T16:33:42;40.17;;;17.38;;
77955;SDS011;67152;36.266;32.294;2023-02-23T16:36:15;34.20;;;17.70;;
77955;SDS011;67152;36.266;32.294;2023-02-23T16:39:00;36.40;;;16.98;;
77955;SDS011;67152;36.266;32.294;2023-02-23T16:41:29;58.35;;;18.77;;
77955;SDS011;67152;36.266;32.294;2023-02-23T16:43:59;48.08;;;19.58;;
77955;SDS011;67152;36.266;32.294;2023-02-23T16:46:28;40.55;;;17.77;;
77955;SDS011;67152;36.266;32.294;2023-02-23T16:48:57;36.60;;;19.55;;
77955;SDS011;67152;36.266;32.294;2023-02-23T16:51:35;39.08;;;18.85;;
77955;SDS011;67152;36.266;32.294;2023-02-23T16:54:01;33.27;;;17.77;;
77955;SDS011;67152;36.266;32.294;2023-02-23T16:56:29;55.67;;;21.20;;
77955;SDS011;67152;36.266;32.294;2023-02-23T16:59:00;31.10;;;16.95;;
77955;SDS011;67152;36.266;32.294;2023-02-23T17:01:27;29.33;;;18.33;;
77955;SDS011;67152;36.266;32.294;2023-02-23T17:03:54;32.33;;;22.55;;
77955;SDS011;67152;36.266;32.294;2023-02-23T17:06:24;44.50;;;29.00;;
77955;SDS011;67152;36.266;32.294;2023-02-23T17:08:51;41.70;;;26.35;;
77955;SDS011;67152;36.266;32.294;2023-02-23T17:11:18;38.80;;;24.73;;
77955;SDS011;67152;36.266;32.294;2023-02-23T17:13:45;33.17;;;20.30;;
77955;SDS011;67152;36.266;32.294;2023-02-23T17:16:13;32.13;;;19.85;;
77955;SDS011;67152;36.266;32.294;2023-02-23T17:18:40;35.80;;;21.23;;
77955;SDS011;67152;36.266;32.294;2023-02-23T17:21:10;32.55;;;18.10;;
77955;SDS011;67152;36.266;32.294;2023-02-23T17:23:38;36.25;;;19.88;;
77955;SDS011;67152;36.266;32.294;2023-02-23T17:26:19;36.15;;;19.27;;
77955;SDS011;67152;36.266;32.294;2023-02-23T17:28:47;39.53;;;18.75;;
77955;SDS011;67152;36.266;32.294;2023-02-23T17:31:16;33.83;;;18.20;;
77955;SDS011;67152;36.266;32.294;2023-02-23T17:33:44;31.00;;;13.90;;
77955;SDS011;67152;36.266;32.294;2023-02-23T17:36:15;23.58;;;14.57;;
77955;SDS011;67152;36.266;32.294;2023-02-23T17:38:43;29.73;;;14.85;;
77955;SDS011;67152;36.266;32.294;2023-02-23T17:41:19;22.05;;;15.02;;
77955;SDS011;67152;36.266;32.294;2023-02-23T17:43:46;25.73;;;16.50;;
77955;SDS011;67152;36.266;32.294;2023-02-23T17:46:13;37.20;;;17.35;;
77955;SDS011;67152;36.266;32.294;2023-02-23T17:48:40;24.83;;;15.00;;
77955;SDS011;67152;36.266;32.294;2023-02-23T17:51:12;26.13;;;16.00;;
77955;SDS011;67152;36.266;32.294;2023-02-23T17:53:41;27.83;;;15.35;;
77955;SDS011;67152;36.266;32.294;2023-02-23T17:56:09;44.17;;;18.27;;
77955;SDS011;67152;36.266;32.294;2023-02-23T17:58:36;37.65;;;24.45;;
77955;SDS011;67152;36.266;32.294;2023-02-23T18:01:05;49.65;;;29.63;;
77955;SDS011;67152;36.266;32.294;2023-02-23T18:03:34;26.90;;;17.00;;
77955;SDS011;67152;36.266;32.294;2023-02-23T18:06:11;30.58;;;18.27;;
77955;SDS011;67152;36.266;32.294;2023-02-23T18:08:39;23.75;;;16.13;;